Time;durP1;ratioP1;P1;durP2;ratioP2;P2;SDS_P1;SDS_P2;PMS_P1;PMS_P2;Temp;Humidity;BMP_temperature;BMP_pressure;BME280_temperature;BME280_humidity;BME280_pressure;Samples;Min_cycle;Max_cycle;Signal;HPM_P1;HPM_P2
2023/08/10 04:02:10;;;;;;;;;;;;;;;15.41;72.02;99425.83;110451;1228;107265;-90
2023/08/10 04:04:38;;;;;;;;;;;;;;;15.43;72.01;99427.55;109299;1233;96560;-89
2023/08/10 04:07:23;;;;;;;;;;;;;;;15.46;72.06;99430.70;109622;1234;96483;-92
2023/08/10 04:10:16;;;;;;;;;;;;;;;;;;;;;
2023/08/10 04:16:30;;;;;;;;;;;;;;;15.37;72.10;99427.41;109805;1233;108565;-92
2023/08/10 04:19:10;;;;;;;;;;;;;;;15.35;72.13;99429.31;109629;1237;96676;-91
2023/08/10 04:21:42;;;;;;;;;;;;;;;15.31;72.08;99426.27;109384;1238;96511;-91
2023/08/10 04:24:14;;;;;;;;;;;;;;;15.28;72.20;99425.99;109628;1237;109290;-92
2023/08/10 04:26:41;;;;;;;;;;;;;;;15.25;72.10;99433.62;109267;1234;96571;-92
2023/08/10 04:33:53;;;;;;;;;;;;;;;;;;;;;
2023/08/10 04:37:22;;;;;;;;;;;;;;;15.33;72.21;99440.23;109372;1237;96602;-92
2023/08/10 04:39:49;;;;;;;;;;;;;;;15.35;72.19;99437.95;109256;1235;109849;-92
2023/08/10 04:42:21;;;;;;;;;;;;;;;15.37;72.32;99439.55;109307;1231;96483;-90
2023/08/10 04:44:48;;;;;;;;;;;;;;;15.37;72.17;99444.74;109427;1232;106426;-90
2023/08/10 04:47:15;;;;;;;;;;;;;;;15.36;72.18;99442.16;109325;1236;97792;-91
2023/08/10 04:49:59;;;;;;;;;;;;;;;;;;;;;
2023/08/10 04:52:36;;;;;;;;;;;;;;;15.36;72.31;99456.09;109762;1231;109974;-91
2023/08/10 04:55:06;;;;;;;;;;;;;;;15.36;72.28;99461.23;109594;1231;96536;-90
2023/08/10 04:58:30;;;;;;;;;;;;;;;;;;;;;
2023/08/10 05:01:06;;;;;;;;;;;;;;;15.37;72.41;99469.39;109927;1231;96570;-90
2023/08/10 05:04:41;;;;;;;;;;;;;;;15.35;72.40;99469.19;109940;1231;95551;-91
2023/08/10 05:07:13;;;;;;;;;;;;;;;15.36;72.43;99468.91;109960;1231;110381;-90
2023/08/10 05:10:02;;;;;;;;;;;;;;;15.41;72.52;99474.77;110092;1231;96613;-91
2023/08/10 05:13:11;;;;;;;;;;;;;;;15.47;72.48;99479.10;110240;1235;106527;-90
2023/08/10 05:15:42;;;;;;;;;;;;;;;15.52;72.41;99485.07;109896;1237;97399;-92
2023/08/10 05:18:09;;;;;;;;;;;;;;;15.52;72.27;99485.23;109511;1237;96567;-91
2023/08/10 05:20:38;;;;;;;;;;;;;;;15.51;72.30;99486.28;109110;1231;97475;-91
2023/08/10 05:23:11;;;;;;;;;;;;;;;15.51;72.31;99484.95;109218;1231;97816;-90
2023/08/10 05:25:52;;;;;;;;;;;;;;;;;;;;;
2023/08/10 05:29:20;;;;;;;;;;;;;;;15.60;72.54;99481.70;108795;1237;96676;-91
2023/08/10 05:32:13;;;;;;;;;;;;;;;15.67;72.51;99484.89;108905;1235;96475;-91
2023/08/10 05:34:45;;;;;;;;;;;;;;;15.70;72.57;99489.55;108895;1235;108539;-90
2023/08/10 05:37:50;;;;;;;;;;;;;;;15.70;72.38;99490.19;108907;1235;97383;-91
2023/08/10 05:43:00;;;;;;;;;;;;;;;15.66;72.45;99500.36;110508;1235;96394;-90
2023/08/10 05:45:33;;;;;;;;;;;;;;;15.65;72.45;99502.89;109436;1237;96607;-91
2023/08/10 05:48:44;;;;;;;;;;;;;;;15.64;72.49;99507.07;108961;1235;109105;-90
2023/08/10 05:51:12;;;;;;;;;;;;;;;15.64;72.48;99510.11;108835;1247;97791;-90
2023/08/10 05:53:39;;;;;;;;;;;;;;;15.63;72.45;99513.44;108890;1243;96498;-90
2023/08/10 05:56:25;;;;;;;;;;;;;;;;;;;;;
2023/08/10 05:58:54;;;;;;;;;;;;;;;15.58;72.56;99515.80;108765;1238;96983;-91
2023/08/10 06:01:27;;;;;;;;;;;;;;;15.58;72.52;99519.62;108945;1235;96607;-91
2023/08/10 06:03:59;;;;;;;;;;;;;;;15.56;72.47;99521.52;109003;1232;96574;-91
2023/08/10 06:06:29;;;;;;;;;;;;;;;15.53;72.53;99521.96;109020;1232;106691;-92
2023/08/10 06:08:55;;;;;;;;;;;;;;;15.53;72.61;99523.98;109164;1237;96606;-90
2023/08/10 06:11:22;;;;;;;;;;;;;;;15.54;72.61;99526.92;109020;1244;96685;-91
2023/08/10 06:14:53;;;;;;;;;;;;;;;15.52;72.59;99526.50;108574;1241;111192;-91
2023/08/10 06:17:23;;;;;;;;;;;;;;;15.50;72.61;99528.65;108564;1238;97921;-91
2023/08/10 06:20:26;;;;;;;;;;;;;;;;;;;;;
2023/08/10 06:23:22;;;;;;;;;;;;;;;;;;;;;
2023/08/10 06:26:42;;;;;;;;;;;;;;;15.46;72.69;99537.00;108526;1237;96585;-91
2023/08/10 06:32:41;;;;;;;;;;;;;;;15.51;72.81;99543.27;108719;1238;97720;-91
2023/08/10 06:35:09;;;;;;;;;;;;;;;15.51;72.74;99541.81;108787;1240;108234;-91
2023/08/10 06:37:37;;;;;;;;;;;;;;;15.54;73.02;99545.86;108603;1238;493586;-90
2023/08/10 06:40:24;;;;;;;;;;;;;;;;;;;;;
2023/08/10 06:43:11;;;;;;;;;;;;;;;15.58;72.97;99546.06;108985;1236;109760;-90
2023/08/10 06:45:37;;;;;;;;;;;;;;;15.59;72.86;99547.42;108940;1232;96697;-90
2023/08/10 06:48:05;;;;;;;;;;;;;;;15.61;72.87;99543.40;109014;1237;97944;-91
2023/08/10 06:50:42;;;;;;;;;;;;;;;;;;;;;
2023/08/10 06:54:12;;;;;;;;;;;;;;;15.58;72.85;99552.81;109014;1232;96493;-91
2023/08/10 06:56:47;;;;;;;;;;;;;;;15.54;72.76;99553.91;108724;1232;110217;-91
2023/08/10 06:59:35;;;;;;;;;;;;;;;15.51;72.89;99554.67;109124;1237;96565;-90
2023/08/10 07:05:55;;;;;;;;;;;;;;;;;;;;;
2023/08/10 07:08:45;;;;;;;;;;;;;;;;;;;;;
2023/08/10 07:11:48;;;;;;;;;;;;;;;15.42;73.04;99561.73;108984;1237;109323;-92
2023/08/10 07:15:34;;;;;;;;;;;;;;;;;;;;;
2023/08/10 07:22:45;;;;;;;;;;;;;;;;;;;;;
2023/08/10 07:25:21;;;;;;;;;;;;;;;15.38;73.09;99577.21;108935;1237;96458;-91
2023/08/10 07:27:48;;;;;;;;;;;;;;;15.37;73.07;99581.25;109232;1236;109459;-93
2023/08/10 07:30:16;;;;;;;;;;;;;;;15.37;73.05;99589.31;108962;1240;96527;-92
2023/08/10 07:32:44;;;;;;;;;;;;;;;15.37;73.14;99591.80;109373;1237;107414;-92
2023/08/10 07:35:11;;;;;;;;;;;;;;;15.36;73.10;99595.24;109235;1237;97312;-93
2023/08/10 07:37:40;;;;;;;;;;;;;;;15.36;73.21;99597.07;109576;1237;96457;-92
2023/08/10 07:40:10;;;;;;;;;;;;;;;15.36;73.21;99598.33;109690;1237;108292;-92
2023/08/10 07:53:51;;;;;;;;;;;;;;;15.45;73.20;99606.13;110489;1231;95225;-90
2023/08/10 08:00:24;;;;;;;;;;;;;;;;;;;;;
2023/08/10 08:10:08;;;;;;;;;;;;;;;;;;;;;
2023/08/10 08:13:06;;;;;;;;;;;;;;;15.91;73.34;99592.91;109294;1234;109372;-91
2023/08/10 08:20:12;;;;;;;;;;;;;;;15.99;73.17;99598.15;109114;1237;108870;-91
2023/08/10 08:29:32;;;;;;;;;;;;;;;;;;;;;
2023/08/10 08:33:05;;;;;;;;;;;;;;;;;;;;;
2023/08/10 08:35:54;;;;;;;;;;;;;;;16.01;73.20;99599.40;109361;1230;106290;-92
2023/08/10 08:39:16;;;;;;;;;;;;;;;16.02;73.25;99597.91;109170;1235;96474;-92
2023/08/10 08:41:43;;;;;;;;;;;;;;;16.01;73.11;99600.48;109335;1231;96524;-92
2023/08/10 08:52:18;;;;;;;;;;;;;;;16.04;73.08;99606.88;108860;1237;107392;-93
2023/08/10 08:58:22;;;;;;;;;;;;;;;16.05;73.12;99609.66;109424;1234;97825;-92
2023/08/10 09:00:58;;;;;;;;;;;;;;;16.04;73.12;99609.17;109173;1237;109686;-92
2023/08/10 09:03:29;;;;;;;;;;;;;;;16.03;73.15;99610.48;109277;1234;96572;-91
2023/08/10 09:10:36;;;;;;;;;;;;;;;16.06;73.18;99616.13;109378;1234;97701;-92
2023/08/10 09:13:42;;;;;;;;;;;;;;;16.08;73.08;99618.34;109300;1232;97863;-92
2023/08/10 09:17:04;;;;;;;;;;;;;;;16.11;72.87;99624.35;109389;1232;109818;-92
2023/08/10 09:20:04;;;;;;;;;;;;;;;16.11;73.03;99626.84;109406;1232;96565;-91
2023/08/10 09:29:08;;;;;;;;;;;;;;;16.14;73.10;99641.77;109438;1234;96586;-90
2023/08/10 09:36:01;;;;;;;;;;;;;;;16.10;73.06;99643.41;109354;1232;96570;-90
2023/08/10 09:40:00;;;;;;;;;;;;;;;16.07;73.12;99647.20;109187;1234;107580;-91
2023/08/10 09:43:06;;;;;;;;;;;;;;;16.07;73.04;99647.04;109256;1231;96564;-91
2023/08/10 09:45:38;;;;;;;;;;;;;;;16.07;73.14;99641.46;109252;1232;96487;-91
2023/08/10 09:49:39;;;;;;;;;;;;;;;16.09;73.10;99641.51;109380;1237;111091;-91
2023/08/10 09:52:25;;;;;;;;;;;;;;;;;;;;;
2023/08/10 09:56:07;;;;;;;;;;;;;;;16.15;73.17;99634.38;108954;1232;107229;-90
2023/08/10 09:58:38;;;;;;;;;;;;;;;16.18;72.96;99632.81;109622;1237;96497;-90
2023/08/10 10:01:23;;;;;;;;;;;;;;;;;;;;;
2023/08/10 10:04:23;;;;;;;;;;;;;;;;;;;;;
2023/08/10 10:21:19;;;;;;;;;;;;;;;;;;;;;
2023/08/10 10:24:18;;;;;;;;;;;;;;;16.65;73.15;99631.27;109122;1237;96483;-89
2023/08/10 10:27:08;;;;;;;;;;;;;;;16.72;72.99;99635.86;109283;1234;107158;-89
2023/08/10 10:29:45;;;;;;;;;;;;;;;16.74;72.94;99637.10;109113;1235;96475;-91
2023/08/10 10:32:52;;;;;;;;;;;;;;;16.78;72.91;99640.34;109215;1234;96637;-91
2023/08/10 10:36:08;;;;;;;;;;;;;;;16.80;72.84;99640.67;109004;1237;108939;-90
2023/08/10 10:39:11;;;;;;;;;;;;;;;16.77;72.70;99636.13;109104;1234;96687;-90
2023/08/10 10:41:47;;;;;;;;;;;;;;;16.77;72.69;99640.05;109061;1231;107461;-93
2023/08/10 10:44:28;;;;;;;;;;;;;;;;;;;;;
2023/08/10 10:57:45;;;;;;;;;;;;;;;16.78;72.63;99639.23;109822;1237;108633;-92
2023/08/10 11:01:05;;;;;;;;;;;;;;;16.78;72.72;99633.13;110001;1235;96509;-92
2023/08/10 11:07:12;;;;;;;;;;;;;;;;;;;;;
2023/08/10 11:10:34;;;;;;;;;;;;;;;16.77;72.47;99636.47;109829;1237;96683;-92
2023/08/10 11:13:12;;;;;;;;;;;;;;;16.79;72.52;99634.69;109773;1232;107850;-90
2023/08/10 11:25:37;;;;;;;;;;;;;;;16.90;72.59;99625.46;109791;1237;96519;-92
2023/08/10 11:28:38;;;;;;;;;;;;;;;16.89;72.47;99629.33;109787;1235;107550;-91
2023/08/10 11:31:31;;;;;;;;;;;;;;;16.90;72.54;99631.70;109243;1237;97886;-90
2023/08/10 11:34:28;;;;;;;;;;;;;;;16.91;72.55;99634.08;109476;1238;96463;-91
2023/08/10 11:37:15;;;;;;;;;;;;;;;;;;;;;
2023/08/10 11:40:55;;;;;;;;;;;;;;;;;;;;;
2023/08/10 11:43:53;;;;;;;;;;;;;;;16.93;72.61;99631.97;109445;1232;106745;-90
2023/08/10 11:46:34;;;;;;;;;;;;;;;16.96;72.41;99627.25;109503;1237;96499;-91
2023/08/10 11:49:24;;;;;;;;;;;;;;;16.99;72.54;99625.78;109410;1235;96554;-91
2023/08/10 11:52:26;;;;;;;;;;;;;;;17.00;72.29;99625.90;109503;1237;108158;-91
2023/08/10 11:55:32;;;;;;;;;;;;;;;17.01;72.38;99627.75;109236;1235;97453;-92
2023/08/10 12:01:02;;;;;;;;;;;;;;;16.98;72.61;99628.73;109549;1231;96504;-91
2023/08/10 12:03:37;;;;;;;;;;;;;;;17.00;72.41;99629.13;109387;1232;96688;-92
2023/08/10 12:10:39;;;;;;;;;;;;;;;17.03;72.34;99627.38;110538;1237;96639;-91
2023/08/10 12:13:28;;;;;;;;;;;;;;;17.05;72.35;99621.47;109818;1237;106479;-91
2023/08/10 12:16:04;;;;;;;;;;;;;;;17.12;72.55;99622.06;109547;1231;96738;-91
2023/08/10 12:18:57;;;;;;;;;;;;;;;17.17;72.39;99618.23;109509;1232;96471;-90
2023/08/10 12:26:48;;;;;;;;;;;;;;;;;;;;;
2023/08/10 12:29:30;;;;;;;;;;;;;;;17.40;72.50;99616.12;109818;1236;106818;-90
2023/08/10 12:35:18;;;;;;;;;;;;;;;17.50;72.49;99612.65;109416;1237;96689;-91
2023/08/10 12:41:01;;;;;;;;;;;;;;;17.56;72.43;99610.70;110034;1237;96481;-90
2023/08/10 12:47:01;;;;;;;;;;;;;;;;;;;;;
2023/08/10 12:54:21;;;;;;;;;;;;;;;17.75;72.15;99607.02;109395;1237;110803;-92
2023/08/10 13:00:51;;;;;;;;;;;;;;;17.87;72.12;99613.94;109346;1235;107538;-91
2023/08/10 13:06:22;;;;;;;;;;;;;;;17.85;72.07;99612.06;109802;1237;96572;-91
2023/08/10 13:09:02;;;;;;;;;;;;;;;17.89;71.87;99614.13;109883;1231;108932;-91
2023/08/10 13:12:09;;;;;;;;;;;;;;;17.91;72.04;99612.80;109735;1231;96484;-92
2023/08/10 13:18:28;;;;;;;;;;;;;;;18.03;72.05;99610.46;109487;1238;96561;-91
2023/08/10 13:31:18;;;;;;;;;;;;;;;18.51;71.94;99600.12;108623;1244;107227;-92
2023/08/10 13:33:45;;;;;;;;;;;;;;;18.58;71.86;99596.42;109179;1237;96612;-89
2023/08/10 13:36:18;;;;;;;;;;;;;;;18.66;71.74;99598.33;109665;1231;96665;-91
2023/08/10 13:39:09;;;;;;;;;;;;;;;18.73;71.75;99593.17;109312;1236;109863;-91
2023/08/10 13:42:32;;;;;;;;;;;;;;;;;;;;;
2023/08/10 13:45:48;;;;;;;;;;;;;;;;;;;;;
2023/08/10 13:48:54;;;;;;;;;;;;;;;18.99;71.83;99588.62;109308;1243;96599;-93
2023/08/10 13:51:28;;;;;;;;;;;;;;;19.10;71.60;99586.34;109439;1235;96569;-91
2023/08/10 13:54:28;;;;;;;;;;;;;;;19.12;71.57;99581.73;109641;1231;108836;-91
2023/08/10 13:57:16;;;;;;;;;;;;;;;;;;;;;
2023/08/10 13:59:50;;;;;;;;;;;;;;;19.06;71.32;99577.17;109596;1231;107465;-92
2023/08/10 14:02:24;;;;;;;;;;;;;;;18.91;71.12;99578.92;109381;1231;96737;-91
2023/08/10 14:05:12;;;;;;;;;;;;;;;;;;;;;
2023/08/10 14:07:46;;;;;;;;;;;;;;;18.85;71.48;99574.73;109572;1237;109299;-91
2023/08/10 14:10:22;;;;;;;;;;;;;;;18.90;71.20;99573.48;109685;1234;96710;-93
2023/08/10 14:12:49;;;;;;;;;;;;;;;18.95;71.25;99571.19;109410;1231;107499;-94
2023/08/10 14:15:33;;;;;;;;;;;;;;;19.00;71.11;99570.71;109523;1232;96614;-93
2023/08/10 14:18:24;;;;;;;;;;;;;;;18.99;70.85;99576.55;110024;1231;95479;-92
2023/08/10 14:20:51;;;;;;;;;;;;;;;18.95;70.88;99580.23;110349;1231;109860;-93
2023/08/10 14:23:25;;;;;;;;;;;;;;;18.95;70.96;99583.11;109766;1237;97064;-92
2023/08/10 14:27:06;;;;;;;;;;;;;;;;;;;;;
2023/08/10 14:29:32;;;;;;;;;;;;;;;18.96;70.76;99573.64;109731;1234;96487;-88
2023/08/10 14:32:08;;;;;;;;;;;;;;;18.98;70.92;99573.65;109241;1234;96564;-92
2023/08/10 14:34:36;;;;;;;;;;;;;;;18.99;70.86;99576.56;109304;1234;109801;-91
2023/08/10 14:37:09;;;;;;;;;;;;;;;19.02;70.82;99578.64;109569;1236;96578;-93
2023/08/10 14:39:58;;;;;;;;;;;;;;;19.02;70.68;99573.08;109356;1234;96640;-92
2023/08/10 14:42:29;;;;;;;;;;;;;;;18.99;70.55;99570.86;109518;1233;96558;-91
2023/08/10 14:45:06;;;;;;;;;;;;;;;18.97;70.46;99572.80;109204;1238;96584;-91
2023/08/10 14:48:01;;;;;;;;;;;;;;;18.99;70.40;99572.41;109260;1233;109515;-92
2023/08/10 14:50:33;;;;;;;;;;;;;;;19.04;70.30;99573.55;109347;1234;96586;-92
2023/08/10 14:53:03;;;;;;;;;;;;;;;19.08;70.26;99567.27;109308;1234;107166;-92
2023/08/10 14:55:56;;;;;;;;;;;;;;;19.07;70.27;99564.30;109195;1239;96601;-92
2023/08/10 14:58:39;;;;;;;;;;;;;;;19.09;70.23;99562.81;109730;1236;97231;-91
2023/08/10 15:01:23;;;;;;;;;;;;;;;19.08;70.18;99563.48;109691;1234;108432;-91
2023/08/10 15:04:12;;;;;;;;;;;;;;;19.10;70.11;99558.77;109227;1235;96590;-91
2023/08/10 15:09:46;;;;;;;;;;;;;;;19.16;70.13;99561.26;109882;1237;96579;-91
2023/08/10 15:12:16;;;;;;;;;;;;;;;19.19;70.14;99563.59;109653;1240;97782;-92
2023/08/10 15:15:16;;;;;;;;;;;;;;;19.23;70.09;99565.98;109778;1240;110974;-92
2023/08/10 15:18:12;;;;;;;;;;;;;;;19.22;69.89;99564.77;109738;1235;96577;-92
2023/08/10 15:21:00;;;;;;;;;;;;;;;19.18;69.82;99564.94;109861;1237;107914;-91
2023/08/10 15:24:16;;;;;;;;;;;;;;;19.23;69.92;99563.96;110100;1234;96560;-92
2023/08/10 15:27:33;;;;;;;;;;;;;;;19.24;69.87;99566.57;110030;1237;96315;-92
2023/08/10 15:33:14;;;;;;;;;;;;;;;19.18;69.64;99569.62;110316;1235;96561;-92
2023/08/10 15:38:54;;;;;;;;;;;;;;;19.18;69.65;99571.78;110255;1235;97303;-94
2023/08/10 15:45:06;;;;;;;;;;;;;;;19.17;69.42;99575.70;110078;1234;109517;-90
2023/08/10 15:50:47;;;;;;;;;;;;;;;19.18;69.39;99578.69;110082;1234;106215;-92
2023/08/10 15:54:09;;;;;;;;;;;;;;;;;;;;;
2023/08/10 15:57:55;;;;;;;;;;;;;;;19.15;69.30;99584.85;109895;1237;96512;-91
2023/08/10 16:00:39;;;;;;;;;;;;;;;19.23;69.39;99584.30;110363;1231;110696;-91
2023/08/10 16:06:43;;;;;;;;;;;;;;;19.27;69.06;99577.98;110031;1236;106545;-91
2023/08/10 16:09:34;;;;;;;;;;;;;;;;;;;;;
2023/08/10 16:12:31;;;;;;;;;;;;;;;19.42;69.01;99568.16;109665;1234;95541;-91
2023/08/10 16:15:23;;;;;;;;;;;;;;;19.40;68.83;99567.13;109730;1236;110825;-92
2023/08/10 16:17:53;;;;;;;;;;;;;;;19.41;68.93;99571.86;109536;1233;97773;-92
2023/08/10 16:20:20;;;;;;;;;;;;;;;19.46;68.87;99572.20;109806;1233;107001;-91
2023/08/10 16:22:52;;;;;;;;;;;;;;;19.51;68.81;99570.66;109523;1233;96591;-92
2023/08/10 16:25:19;;;;;;;;;;;;;;;19.58;68.91;99568.02;109040;1238;96550;-91
2023/08/10 16:27:46;;;;;;;;;;;;;;;19.58;68.66;99563.98;109228;1248;96709;-91
2023/08/10 16:30:13;;;;;;;;;;;;;;;19.54;68.56;99568.59;109902;1233;96382;-90
2023/08/10 16:32:40;;;;;;;;;;;;;;;19.55;68.45;99570.46;109578;1236;96495;-91
2023/08/10 16:35:07;;;;;;;;;;;;;;;19.55;68.41;99571.46;108917;1233;96607;-91
2023/08/10 16:37:39;;;;;;;;;;;;;;;19.52;68.34;99573.67;109065;1234;96493;-90
2023/08/10 16:40:06;;;;;;;;;;;;;;;19.50;68.33;99578.34;108969;1236;109809;-94
2023/08/10 16:45:49;;;;;;;;;;;;;;;19.47;68.45;99586.71;109063;1237;106293;-90
2023/08/10 16:48:36;;;;;;;;;;;;;;;19.43;68.36;99591.46;109215;1237;96541;-91
2023/08/10 16:51:04;;;;;;;;;;;;;;;19.34;68.15;99588.71;109129;1236;96497;-90
2023/08/10 16:53:34;;;;;;;;;;;;;;;19.27;68.15;99588.35;108830;1236;109826;-91
2023/08/10 16:56:22;;;;;;;;;;;;;;;;;;;;;
2023/08/10 16:59:00;;;;;;;;;;;;;;;19.22;68.20;99592.67;109059;1233;107126;-93
2023/08/10 17:01:36;;;;;;;;;;;;;;;19.21;68.30;99589.02;108960;1234;96958;-91
2023/08/10 17:04:03;;;;;;;;;;;;;;;19.19;68.21;99591.86;109018;1246;97729;-92
2023/08/10 17:13:27;;;;;;;;;;;;;;;19.07;68.26;99591.33;109029;1233;107481;-92
2023/08/10 17:19:36;;;;;;;;;;;;;;;18.94;68.34;99593.27;109722;1232;96560;-92
2023/08/10 17:22:07;;;;;;;;;;;;;;;18.91;68.22;99596.60;109057;1234;96637;-91
2023/08/10 17:24:35;;;;;;;;;;;;;;;18.84;68.23;99597.64;109290;1232;96633;-91
2023/08/10 17:27:04;;;;;;;;;;;;;;;18.79;68.25;99600.27;109235;1236;107905;-90
2023/08/10 17:29:32;;;;;;;;;;;;;;;18.73;68.25;99597.42;109185;1236;96649;-91
2023/08/10 17:38:13;;;;;;;;;;;;;;;18.42;68.35;99596.69;103932;1286;634016;-91
2023/08/10 17:40:41;;;;;;;;;;;;;;;18.31;68.38;99594.52;106118;1257;94329;-93
2023/08/10 17:43:15;;;;;;;;;;;;;;;18.23;68.26;99596.14;106293;1261;94319;-91
2023/08/10 17:45:43;;;;;;;;;;;;;;;18.14;68.23;99597.36;106279;1257;106713;-91
2023/08/10 17:48:14;;;;;;;;;;;;;;;18.05;68.35;99596.97;106289;1257;94322;-91
2023/08/10 17:50:45;;;;;;;;;;;;;;;17.98;68.29;99597.81;104054;1256;3313231;-91
2023/08/10 17:53:13;;;;;;;;;;;;;;;17.88;68.22;99598.74;106068;1257;94264;-92
2023/08/10 17:56:02;;;;;;;;;;;;;;;;;;;;;
2023/08/10 17:58:37;;;;;;;;;;;;;;;17.66;68.12;99602.95;106250;1257;105916;-91
2023/08/10 18:01:07;;;;;;;;;;;;;;;17.55;68.19;99609.18;106051;1262;94417;-90
2023/08/10 18:03:41;;;;;;;;;;;;;;;17.46;68.24;99608.05;106058;1257;107707;-91
2023/08/10 18:06:15;;;;;;;;;;;;;;;17.35;68.25;99614.26;106035;1259;95166;-93
2023/08/10 18:08:43;;;;;;;;;;;;;;;17.25;68.38;99621.96;106538;1256;95263;-91
2023/08/10 18:11:18;;;;;;;;;;;;;;;17.15;68.42;99625.37;105874;1262;108647;-90
2023/08/10 18:13:53;;;;;;;;;;;;;;;17.07;68.43;99626.95;106115;1260;95342;-91
